sensor_id;sensor_type;location;lat;lon;timestamp;temperature;humidity
53498;DHT22;39382;47.168;16.008;2023-07-30T00:00:44;19.40;99.90
53498;DHT22;39382;47.168;16.008;2023-07-30T00:03:10;19.40;99.90
53498;DHT22;39382;47.168;16.008;2023-07-30T00:05:35;19.30;99.90
53498;DHT22;39382;47.168;16.008;2023-07-30T00:08:01;19.40;99.90
53498;DHT22;39382;47.168;16.008;2023-07-30T00:10:27;19.40;99.90
53498;DHT22;39382;47.168;16.008;2023-07-30T00:12:52;19.40;99.90
53498;DHT22;39382;47.168;16.008;2023-07-30T00:15:18;19.40;99.90
53498;DHT22;39382;47.168;16.008;2023-07-30T00:17:43;19.40;99.90
53498;DHT22;39382;47.168;16.008;2023-07-30T00:20:09;19.30;99.90
53498;DHT22;39382;47.168;16.008;2023-07-30T00:22:35;19.30;99.90
53498;DHT22;39382;47.168;16.008;2023-07-30T00:25:01;19.40;99.90
53498;DHT22;39382;47.168;16.008;2023-07-30T00:27:26;19.40;99.90
53498;DHT22;39382;47.168;16.008;2023-07-30T00:29:52;19.40;99.90
53498;DHT22;39382;47.168;16.008;2023-07-30T00:32:17;19.40;99.90
53498;DHT22;39382;47.168;16.008;2023-07-30T00:34:43;19.40;99.90
53498;DHT22;39382;47.168;16.008;2023-07-30T00:37:09;19.40;99.90
53498;DHT22;39382;47.168;16.008;2023-07-30T00:39:35;19.40;99.90
53498;DHT22;39382;47.168;16.008;2023-07-30T00:42:00;19.40;99.90
53498;DHT22;39382;47.168;16.008;2023-07-30T00:44:26;19.40;99.90
53498;DHT22;39382;47.168;16.008;2023-07-30T00:46:52;19.40;99.90
53498;DHT22;39382;47.168;16.008;2023-07-30T00:49:18;19.40;99.90
53498;DHT22;39382;47.168;16.008;2023-07-30T00:51:44;19.60;99.90
53498;DHT22;39382;47.168;16.008;2023-07-30T00:54:10;19.40;99.90
53498;DHT22;39382;47.168;16.008;2023-07-30T00:56:36;19.50;99.90
53498;DHT22;39382;47.168;16.008;2023-07-30T00:59:02;19.50;99.90
53498;DHT22;39382;47.168;16.008;2023-07-30T01:01:30;19.40;99.90
53498;DHT22;39382;47.168;16.008;2023-07-30T01:03:58;19.40;99.90
53498;DHT22;39382;47.168;16.008;2023-07-30T01:06:24;19.40;99.90
53498;DHT22;39382;47.168;16.008;2023-07-30T01:08:49;19.40;99.90
53498;DHT22;39382;47.168;16.008;2023-07-30T01:11:15;19.50;99.90
53498;DHT22;39382;47.168;16.008;2023-07-30T01:13:42;19.50;99.90
53498;DHT22;39382;47.168;16.008;2023-07-30T01:16:08;19.50;99.90
53498;DHT22;39382;47.168;16.008;2023-07-30T01:18:34;19.50;99.90
53498;DHT22;39382;47.168;16.008;2023-07-30T01:21:00;19.50;99.90
53498;DHT22;39382;47.168;16.008;2023-07-30T01:23:26;19.40;99.90
53498;DHT22;39382;47.168;16.008;2023-07-30T01:26:22;19.50;99.90
53498;DHT22;39382;47.168;16.008;2023-07-30T01:28:50;19.50;99.90
53498;DHT22;39382;47.168;16.008;2023-07-30T01:31:18;19.40;99.90
53498;DHT22;39382;47.168;16.008;2023-07-30T01:33:47;19.40;99.90
53498;DHT22;39382;47.168;16.008;2023-07-30T01:36:15;19.30;99.90
53498;DHT22;39382;47.168;16.008;2023-07-30T01:38:43;19.30;99.90
53498;DHT22;39382;47.168;16.008;2023-07-30T01:41:09;19.30;99.90
53498;DHT22;39382;47.168;16.008;2023-07-30T01:43:35;19.40;99.90
53498;DHT22;39382;47.168;16.008;2023-07-30T01:46:01;19.40;99.90
53498;DHT22;39382;47.168;16.008;2023-07-30T01:48:26;19.40;99.90
53498;DHT22;39382;47.168;16.008;2023-07-30T01:50:52;19.30;99.90
53498;DHT22;39382;47.168;16.008;2023-07-30T01:53:18;19.30;99.90
53498;DHT22;39382;47.168;16.008;2023-07-30T01:55:43;19.30;99.90
53498;DHT22;39382;47.168;16.008;2023-07-30T01:58:14;19.20;99.90
53498;DHT22;39382;47.168;16.008;2023-07-30T02:00:40;19.20;99.90
53498;DHT22;39382;47.168;16.008;2023-07-30T02:03:06;19.20;99.90
53498;DHT22;39382;47.168;16.008;2023-07-30T02:05:31;19.10;99.90
53498;DHT22;39382;47.168;16.008;2023-07-30T02:07:58;19.20;99.90
53498;DHT22;39382;47.168;16.008;2023-07-30T02:10:26;19.30;99.90
53498;DHT22;39382;47.168;16.008;2023-07-30T02:12:52;19.30;99.90
53498;DHT22;39382;47.168;16.008;2023-07-30T02:15:18;19.30;99.90
53498;DHT22;39382;47.168;16.008;2023-07-30T02:17:43;19.30;99.90
53498;DHT22;39382;47.168;16.008;2023-07-30T02:20:09;19.30;99.90
53498;DHT22;39382;47.168;16.008;2023-07-30T02:22:35;19.20;99.90
53498;DHT22;39382;47.168;16.008;2023-07-30T02:25:00;19.10;99.90
53498;DHT22;39382;47.168;16.008;2023-07-30T02:27:26;19.10;99.90
53498;DHT22;39382;47.168;16.008;2023-07-30T02:29:51;19.10;99.90
53498;DHT22;39382;47.168;16.008;2023-07-30T02:32:17;19.20;99.90
53498;DHT22;39382;47.168;16.008;2023-07-30T02:34:42;19.10;99.90
53498;DHT22;39382;47.168;16.008;2023-07-30T02:37:08;19.10;99.90
53498;DHT22;39382;47.168;16.008;2023-07-30T02:39:34;19.10;99.90
53498;DHT22;39382;47.168;16.008;2023-07-30T02:41:59;19.00;99.90
53498;DHT22;39382;47.168;16.008;2023-07-30T02:44:25;19.00;99.90
53498;DHT22;39382;47.168;16.008;2023-07-30T02:46:50;19.00;99.90
53498;DHT22;39382;47.168;16.008;2023-07-30T02:49:16;19.00;99.90
53498;DHT22;39382;47.168;16.008;2023-07-30T02:51:41;19.00;99.90
53498;DHT22;39382;47.168;16.008;2023-07-30T02:54:08;19.00;99.90
53498;DHT22;39382;47.168;16.008;2023-07-30T02:56:35;19.00;99.90
53498;DHT22;39382;47.168;16.008;2023-07-30T02:59:01;19.00;99.90
53498;DHT22;39382;47.168;16.008;2023-07-30T03:01:26;18.90;99.90
53498;DHT22;39382;47.168;16.008;2023-07-30T03:03:52;18.90;99.90
53498;DHT22;39382;47.168;16.008;2023-07-30T03:06:18;19.00;99.90
53498;DHT22;39382;47.168;16.008;2023-07-30T03:08:43;18.90;99.90
53498;DHT22;39382;47.168;16.008;2023-07-30T03:11:09;18.90;99.90
53498;DHT22;39382;47.168;16.008;2023-07-30T03:13:35;18.90;99.90
53498;DHT22;39382;47.168;16.008;2023-07-30T03:16:00;18.90;99.90
53498;DHT22;39382;47.168;16.008;2023-07-30T03:18:26;18.90;99.90
53498;DHT22;39382;47.168;16.008;2023-07-30T03:20:57;18.80;99.90
53498;DHT22;39382;47.168;16.008;2023-07-30T03:23:23;18.80;99.90
53498;DHT22;39382;47.168;16.008;2023-07-30T03:25:48;18.80;99.90
53498;DHT22;39382;47.168;16.008;2023-07-30T03:28:14;18.80;99.90
53498;DHT22;39382;47.168;16.008;2023-07-30T03:30:39;18.70;99.90
53498;DHT22;39382;47.168;16.008;2023-07-30T03:33:05;18.80;99.90
53498;DHT22;39382;47.168;16.008;2023-07-30T03:35:31;18.80;99.90
53498;DHT22;39382;47.168;16.008;2023-07-30T03:37:56;18.90;99.90
53498;DHT22;39382;47.168;16.008;2023-07-30T03:40:22;18.90;99.90
53498;DHT22;39382;47.168;16.008;2023-07-30T03:42:48;18.90;99.90
53498;DHT22;39382;47.168;16.008;2023-07-30T03:45:14;18.70;99.90
53498;DHT22;39382;47.168;16.008;2023-07-30T03:47:39;18.70;99.90
53498;DHT22;39382;47.168;16.008;2023-07-30T03:50:05;18.70;99.90
53498;DHT22;39382;47.168;16.008;2023-07-30T03:52:31;18.70;99.90
53498;DHT22;39382;47.168;16.008;2023-07-30T03:54:57;18.70;99.90
53498;DHT22;39382;47.168;16.008;2023-07-30T03:57:22;18.60;99.90
53498;DHT22;39382;47.168;16.008;2023-07-30T03:59:48;18.60;99.90
53498;DHT22;39382;47.168;16.008;2023-07-30T04:02:13;18.70;99.90
53498;DHT22;39382;47.168;16.008;2023-07-30T04:04:41;18.70;99.90
53498;DHT22;39382;47.168;16.008;2023-07-30T04:07:10;18.70;99.90
53498;DHT22;39382;47.168;16.008;2023-07-30T04:09:36;18.60;99.90
53498;DHT22;39382;47.168;16.008;2023-07-30T04:12:01;18.60;99.90
53498;DHT22;39382;47.168;16.008;2023-07-30T04:14:27;18.60;99.90
53498;DHT22;39382;47.168;16.008;2023-07-30T04:16:52;18.60;99.90
53498;DHT22;39382;47.168;16.008;2023-07-30T04:19:18;18.60;99.90
53498;DHT22;39382;47.168;16.008;2023-07-30T04:21:44;18.60;99.90
53498;DHT22;39382;47.168;16.008;2023-07-30T04:24:09;18.60;99.90
53498;DHT22;39382;47.168;16.008;2023-07-30T04:26:35;18.50;99.90
53498;DHT22;39382;47.168;16.008;2023-07-30T04:29:00;18.50;99.90
53498;DHT22;39382;47.168;16.008;2023-07-30T04:31:26;18.50;99.90
53498;DHT22;39382;47.168;16.008;2023-07-30T04:33:51;18.40;99.90
53498;DHT22;39382;47.168;16.008;2023-07-30T04:36:17;18.40;99.90
53498;DHT22;39382;47.168;16.008;2023-07-30T04:38:42;18.50;99.90
53498;DHT22;39382;47.168;16.008;2023-07-30T04:41:08;18.40;99.90
53498;DHT22;39382;47.168;16.008;2023-07-30T04:43:34;18.40;99.90
53498;DHT22;39382;47.168;16.008;2023-07-30T04:45:59;18.50;99.90
53498;DHT22;39382;47.168;16.008;2023-07-30T04:48:25;18.50;99.90
53498;DHT22;39382;47.168;16.008;2023-07-30T04:50:50;18.50;99.90
53498;DHT22;39382;47.168;16.008;2023-07-30T04:53:16;18.60;99.90
53498;DHT22;39382;47.168;16.008;2023-07-30T04:55:43;18.50;99.90
53498;DHT22;39382;47.168;16.008;2023-07-30T04:58:09;18.60;99.90
53498;DHT22;39382;47.168;16.008;2023-07-30T05:00:34;18.50;99.90
53498;DHT22;39382;47.168;16.008;2023-07-30T05:03:00;18.60;99.90
53498;DHT22;39382;47.168;16.008;2023-07-30T05:05:26;18.60;99.90
53498;DHT22;39382;47.168;16.008;2023-07-30T05:07:51;18.60;99.90
53498;DHT22;39382;47.168;16.008;2023-07-30T05:10:17;18.70;99.90
53498;DHT22;39382;47.168;16.008;2023-07-30T05:12:42;18.70;99.90
53498;DHT22;39382;47.168;16.008;2023-07-30T05:15:08;18.70;99.90
53498;DHT22;39382;47.168;16.008;2023-07-30T05:17:34;18.70;99.90
53498;DHT22;39382;47.168;16.008;2023-07-30T05:19:59;18.70;99.90
53498;DHT22;39382;47.168;16.008;2023-07-30T05:22:25;18.70;99.90
53498;DHT22;39382;47.168;16.008;2023-07-30T05:24:51;18.70;99.90
53498;DHT22;39382;47.168;16.008;2023-07-30T05:27:16;18.70;99.90
53498;DHT22;39382;47.168;16.008;2023-07-30T05:29:42;18.70;99.90
53498;DHT22;39382;47.168;16.008;2023-07-30T05:32:08;18.80;99.90
53498;DHT22;39382;47.168;16.008;2023-07-30T05:34:34;18.80;99.90
53498;DHT22;39382;47.168;16.008;2023-07-30T05:36:59;18.80;99.90
53498;DHT22;39382;47.168;16.008;2023-07-30T05:39:25;18.70;99.90
53498;DHT22;39382;47.168;16.008;2023-07-30T05:41:51;18.70;99.90
53498;DHT22;39382;47.168;16.008;2023-07-30T05:44:17;18.80;99.90
53498;DHT22;39382;47.168;16.008;2023-07-30T05:46:43;18.80;99.90
53498;DHT22;39382;47.168;16.008;2023-07-30T05:49:08;20.00;99.90
53498;DHT22;39382;47.168;16.008;2023-07-30T05:51:34;20.20;99.90
53498;DHT22;39382;47.168;16.008;2023-07-30T05:54:00;20.20;99.90
53498;DHT22;39382;47.168;16.008;2023-07-30T05:56:25;20.20;99.90
53498;DHT22;39382;47.168;16.008;2023-07-30T05:58:51;20.50;99.90
53498;DHT22;39382;47.168;16.008;2023-07-30T06:01:16;20.70;99.90
53498;DHT22;39382;47.168;16.008;2023-07-30T06:03:42;21.10;99.90
53498;DHT22;39382;47.168;16.008;2023-07-30T06:06:08;21.20;99.90
53498;DHT22;39382;47.168;16.008;2023-07-30T06:08:34;20.90;99.90
53498;DHT22;39382;47.168;16.008;2023-07-30T06:11:03;21.00;99.90
53498;DHT22;39382;47.168;16.008;2023-07-30T06:13:29;21.00;99.90
53498;DHT22;39382;47.168;16.008;2023-07-30T06:15:55;21.20;99.90
53498;DHT22;39382;47.168;16.008;2023-07-30T06:18:21;21.00;99.90
53498;DHT22;39382;47.168;16.008;2023-07-30T06:20:46;20.90;99.90
53498;DHT22;39382;47.168;16.008;2023-07-30T06:23:12;21.00;99.90
53498;DHT22;39382;47.168;16.008;2023-07-30T06:25:37;20.90;99.90
53498;DHT22;39382;47.168;16.008;2023-07-30T06:28:05;20.80;99.90
53498;DHT22;39382;47.168;16.008;2023-07-30T06:30:31;21.10;99.90
53498;DHT22;39382;47.168;16.008;2023-07-30T06:32:57;21.00;99.90
53498;DHT22;39382;47.168;16.008;2023-07-30T06:35:23;20.80;99.90
53498;DHT22;39382;47.168;16.008;2023-07-30T06:37:50;20.90;99.90
53498;DHT22;39382;47.168;16.008;2023-07-30T06:40:15;20.80;99.90
53498;DHT22;39382;47.168;16.008;2023-07-30T06:42:41;20.80;99.90
53498;DHT22;39382;47.168;16.008;2023-07-30T06:45:07;20.80;99.90
53498;DHT22;39382;47.168;16.008;2023-07-30T06:47:33;20.70;99.90
53498;DHT22;39382;47.168;16.008;2023-07-30T06:49:59;21.00;99.90
53498;DHT22;39382;47.168;16.008;2023-07-30T06:52:24;20.80;99.90
53498;DHT22;39382;47.168;16.008;2023-07-30T06:54:50;20.60;99.90
53498;DHT22;39382;47.168;16.008;2023-07-30T06:57:16;20.40;99.90
53498;DHT22;39382;47.168;16.008;2023-07-30T06:59:42;20.20;99.90
53498;DHT22;39382;47.168;16.008;2023-07-30T07:02:07;20.10;99.90
53498;DHT22;39382;47.168;16.008;2023-07-30T07:04:33;20.00;99.90
53498;DHT22;39382;47.168;16.008;2023-07-30T07:06:58;19.90;99.90
53498;DHT22;39382;47.168;16.008;2023-07-30T07:09:24;19.70;99.90
53498;DHT22;39382;47.168;16.008;2023-07-30T07:11:50;19.60;99.90
53498;DHT22;39382;47.168;16.008;2023-07-30T07:14:15;19.60;99.90
53498;DHT22;39382;47.168;16.008;2023-07-30T07:16:41;19.50;99.90
53498;DHT22;39382;47.168;16.008;2023-07-30T07:19:07;19.50;99.90
53498;DHT22;39382;47.168;16.008;2023-07-30T07:21:32;19.50;99.90
53498;DHT22;39382;47.168;16.008;2023-07-30T07:23:58;19.60;99.90
53498;DHT22;39382;47.168;16.008;2023-07-30T07:26:23;19.70;99.90
53498;DHT22;39382;47.168;16.008;2023-07-30T07:28:49;19.80;99.90
53498;DHT22;39382;47.168;16.008;2023-07-30T07:31:14;19.80;99.90
53498;DHT22;39382;47.168;16.008;2023-07-30T07:33:40;19.70;99.90
53498;DHT22;39382;47.168;16.008;2023-07-30T07:36:07;19.70;99.90
53498;DHT22;39382;47.168;16.008;2023-07-30T07:38:33;19.70;99.90
53498;DHT22;39382;47.168;16.008;2023-07-30T07:41:00;19.60;99.90
53498;DHT22;39382;47.168;16.008;2023-07-30T07:43:25;19.70;99.90
53498;DHT22;39382;47.168;16.008;2023-07-30T07:45:52;19.70;99.90
53498;DHT22;39382;47.168;16.008;2023-07-30T07:48:17;19.60;99.90
53498;DHT22;39382;47.168;16.008;2023-07-30T07:50:43;19.60;99.90
53498;DHT22;39382;47.168;16.008;2023-07-30T07:53:08;19.60;99.90
53498;DHT22;39382;47.168;16.008;2023-07-30T07:55:35;19.60;99.90
53498;DHT22;39382;47.168;16.008;2023-07-30T07:58:00;19.70;99.90
53498;DHT22;39382;47.168;16.008;2023-07-30T08:00:26;19.60;99.90
53498;DHT22;39382;47.168;16.008;2023-07-30T08:02:51;19.60;99.90
53498;DHT22;39382;47.168;16.008;2023-07-30T08:05:17;19.70;99.90
53498;DHT22;39382;47.168;16.008;2023-07-30T08:07:45;19.70;99.90
53498;DHT22;39382;47.168;16.008;2023-07-30T08:10:11;19.70;99.90
53498;DHT22;39382;47.168;16.008;2023-07-30T08:12:37;19.70;99.90
53498;DHT22;39382;47.168;16.008;2023-07-30T08:15:03;19.70;99.90
53498;DHT22;39382;47.168;16.008;2023-07-30T08:17:28;19.90;99.90
53498;DHT22;39382;47.168;16.008;2023-07-30T08:19:54;19.90;99.90
53498;DHT22;39382;47.168;16.008;2023-07-30T08:22:20;20.00;99.90
53498;DHT22;39382;47.168;16.008;2023-07-30T08:24:45;20.00;99.90
53498;DHT22;39382;47.168;16.008;2023-07-30T08:27:11;20.10;99.90
53498;DHT22;39382;47.168;16.008;2023-07-30T08:29:37;20.10;99.90
53498;DHT22;39382;47.168;16.008;2023-07-30T08:32:02;20.10;99.90
53498;DHT22;39382;47.168;16.008;2023-07-30T08:34:28;20.10;99.90
53498;DHT22;39382;47.168;16.008;2023-07-30T08:36:54;20.10;99.90
53498;DHT22;39382;47.168;16.008;2023-07-30T08:39:19;20.20;99.90
53498;DHT22;39382;47.168;16.008;2023-07-30T08:41:45;20.30;99.90
53498;DHT22;39382;47.168;16.008;2023-07-30T08:44:12;20.30;99.90
53498;DHT22;39382;47.168;16.008;2023-07-30T08:46:38;20.20;99.90
53498;DHT22;39382;47.168;16.008;2023-07-30T08:49:04;20.30;99.90
53498;DHT22;39382;47.168;16.008;2023-07-30T08:51:31;20.50;99.90
53498;DHT22;39382;47.168;16.008;2023-07-30T08:53:57;20.70;99.90
53498;DHT22;39382;47.168;16.008;2023-07-30T08:56:24;20.90;99.90
53498;DHT22;39382;47.168;16.008;2023-07-30T08:58:51;21.00;99.90
53498;DHT22;39382;47.168;16.008;2023-07-30T09:01:18;21.10;99.90
53498;DHT22;39382;47.168;16.008;2023-07-30T09:03:46;21.30;99.90
53498;DHT22;39382;47.168;16.008;2023-07-30T09:06:13;21.60;99.90
53498;DHT22;39382;47.168;16.008;2023-07-30T09:08:39;21.60;99.90
53498;DHT22;39382;47.168;16.008;2023-07-30T09:11:11;21.90;99.90
53498;DHT22;39382;47.168;16.008;2023-07-30T09:13:38;22.20;99.90
53498;DHT22;39382;47.168;16.008;2023-07-30T09:16:14;22.40;99.90
53498;DHT22;39382;47.168;16.008;2023-07-30T09:18:46;22.40;99.90
53498;DHT22;39382;47.168;16.008;2023-07-30T09:21:14;22.60;99.90
53498;DHT22;39382;47.168;16.008;2023-07-30T09:23:44;22.50;99.90
53498;DHT22;39382;47.168;16.008;2023-07-30T09:26:10;22.50;99.90
53498;DHT22;39382;47.168;16.008;2023-07-30T09:28:36;22.60;99.90
53498;DHT22;39382;47.168;16.008;2023-07-30T09:31:03;22.90;99.90
53498;DHT22;39382;47.168;16.008;2023-07-30T09:33:31;22.80;99.90
53498;DHT22;39382;47.168;16.008;2023-07-30T09:35:57;22.90;99.90
53498;DHT22;39382;47.168;16.008;2023-07-30T09:38:23;22.90;99.90
53498;DHT22;39382;47.168;16.008;2023-07-30T09:40:49;23.00;99.90
53498;DHT22;39382;47.168;16.008;2023-07-30T09:43:15;22.90;99.90
53498;DHT22;39382;47.168;16.008;2023-07-30T09:45:44;23.20;99.90
53498;DHT22;39382;47.168;16.008;2023-07-30T09:48:11;23.30;99.90
53498;DHT22;39382;47.168;16.008;2023-07-30T09:50:37;23.60;99.90
53498;DHT22;39382;47.168;16.008;2023-07-30T09:53:04;23.80;99.90
53498;DHT22;39382;47.168;16.008;2023-07-30T09:55:30;23.80;99.90
53498;DHT22;39382;47.168;16.008;2023-07-30T09:57:55;24.10;99.90
53498;DHT22;39382;47.168;16.008;2023-07-30T10:00:21;24.20;99.90
53498;DHT22;39382;47.168;16.008;2023-07-30T10:02:48;24.40;99.90
53498;DHT22;39382;47.168;16.008;2023-07-30T10:05:18;24.60;99.90
53498;DHT22;39382;47.168;16.008;2023-07-30T10:07:53;24.50;99.90
53498;DHT22;39382;47.168;16.008;2023-07-30T10:10:20;24.80;99.90
53498;DHT22;39382;47.168;16.008;2023-07-30T10:12:47;24.80;99.90
53498;DHT22;39382;47.168;16.008;2023-07-30T10:15:19;25.00;99.90
53498;DHT22;39382;47.168;16.008;2023-07-30T10:17:45;25.00;99.90
53498;DHT22;39382;47.168;16.008;2023-07-30T10:20:23;25.10;99.90
53498;DHT22;39382;47.168;16.008;2023-07-30T10:22:53;25.20;99.90
53498;DHT22;39382;47.168;16.008;2023-07-30T10:28:03;25.20;98.70
53498;DHT22;39382;47.168;16.008;2023-07-30T10:30:32;25.00;99.80
53498;DHT22;39382;47.168;16.008;2023-07-30T10:33:03;24.80;99.90
53498;DHT22;39382;47.168;16.008;2023-07-30T10:35:39;24.60;99.90
53498;DHT22;39382;47.168;16.008;2023-07-30T10:38:22;24.60;99.90
53498;DHT22;39382;47.168;16.008;2023-07-30T10:41:07;24.40;99.90
53498;DHT22;39382;47.168;16.008;2023-07-30T10:43:35;24.40;99.90
53498;DHT22;39382;47.168;16.008;2023-07-30T10:46:01;24.50;99.90
53498;DHT22;39382;47.168;16.008;2023-07-30T10:50:57;25.00;99.90
53498;DHT22;39382;47.168;16.008;2023-07-30T10:53:23;25.20;99.90
53498;DHT22;39382;47.168;16.008;2023-07-30T10:55:48;25.20;99.50
53498;DHT22;39382;47.168;16.008;2023-07-30T10:58:15;25.20;99.90
53498;DHT22;39382;47.168;16.008;2023-07-30T11:00:42;25.10;99.90
53498;DHT22;39382;47.168;16.008;2023-07-30T11:03:07;25.40;99.90
53498;DHT22;39382;47.168;16.008;2023-07-30T11:05:33;25.50;99.90
53498;DHT22;39382;47.168;16.008;2023-07-30T11:07:58;25.90;99.90
53498;DHT22;39382;47.168;16.008;2023-07-30T11:10:24;25.90;97.20
53498;DHT22;39382;47.168;16.008;2023-07-30T11:12:51;25.90;96.90
53498;DHT22;39382;47.168;16.008;2023-07-30T11:15:16;26.00;97.30
53498;DHT22;39382;47.168;16.008;2023-07-30T11:17:42;26.10;97.50
53498;DHT22;39382;47.168;16.008;2023-07-30T11:20:22;26.10;96.50
53498;DHT22;39382;47.168;16.008;2023-07-30T11:22:48;26.20;96.20
53498;DHT22;39382;47.168;16.008;2023-07-30T11:25:17;26.30;96.10
53498;DHT22;39382;47.168;16.008;2023-07-30T11:27:50;26.30;94.50
53498;DHT22;39382;47.168;16.008;2023-07-30T11:30:16;26.10;94.70
53498;DHT22;39382;47.168;16.008;2023-07-30T11:32:42;26.00;94.90
53498;DHT22;39382;47.168;16.008;2023-07-30T11:35:13;26.00;95.70
53498;DHT22;39382;47.168;16.008;2023-07-30T11:37:40;26.00;99.90
53498;DHT22;39382;47.168;16.008;2023-07-30T11:40:09;26.00;99.90
53498;DHT22;39382;47.168;16.008;2023-07-30T11:42:36;25.90;99.90
53498;DHT22;39382;47.168;16.008;2023-07-30T11:45:37;25.80;99.90
53498;DHT22;39382;47.168;16.008;2023-07-30T11:48:11;25.70;99.90
53498;DHT22;39382;47.168;16.008;2023-07-30T11:51:03;25.70;99.90
53498;DHT22;39382;47.168;16.008;2023-07-30T11:53:46;25.70;99.90
53498;DHT22;39382;47.168;16.008;2023-07-30T11:56:21;25.90;99.90
53498;DHT22;39382;47.168;16.008;2023-07-30T11:58:48;26.30;99.90
53498;DHT22;39382;47.168;16.008;2023-07-30T12:01:15;26.50;99.30
53498;DHT22;39382;47.168;16.008;2023-07-30T12:03:41;26.70;97.60
53498;DHT22;39382;47.168;16.008;2023-07-30T12:06:08;27.00;94.80
53498;DHT22;39382;47.168;16.008;2023-07-30T12:08:35;26.80;95.30
53498;DHT22;39382;47.168;16.008;2023-07-30T12:11:09;26.90;93.80
53498;DHT22;39382;47.168;16.008;2023-07-30T12:13:42;27.10;93.70
53498;DHT22;39382;47.168;16.008;2023-07-30T12:16:10;27.10;93.90
53498;DHT22;39382;47.168;16.008;2023-07-30T12:18:37;27.20;92.60
53498;DHT22;39382;47.168;16.008;2023-07-30T12:21:03;27.00;92.30
53498;DHT22;39382;47.168;16.008;2023-07-30T12:23:32;26.90;93.30
53498;DHT22;39382;47.168;16.008;2023-07-30T12:25:57;27.00;91.30
53498;DHT22;39382;47.168;16.008;2023-07-30T12:28:23;27.20;90.40
53498;DHT22;39382;47.168;16.008;2023-07-30T12:30:48;27.00;94.10
53498;DHT22;39382;47.168;16.008;2023-07-30T12:33:14;26.90;96.80
53498;DHT22;39382;47.168;16.008;2023-07-30T12:35:40;26.50;97.50
53498;DHT22;39382;47.168;16.008;2023-07-30T12:38:05;26.20;99.90
53498;DHT22;39382;47.168;16.008;2023-07-30T12:40:31;25.80;99.60
53498;DHT22;39382;47.168;16.008;2023-07-30T12:43:00;25.50;99.90
53498;DHT22;39382;47.168;16.008;2023-07-30T12:45:27;25.30;99.90
53498;DHT22;39382;47.168;16.008;2023-07-30T12:47:52;25.00;99.90
53498;DHT22;39382;47.168;16.008;2023-07-30T12:50:19;24.90;99.90
53498;DHT22;39382;47.168;16.008;2023-07-30T12:52:45;24.80;99.90
53498;DHT22;39382;47.168;16.008;2023-07-30T12:55:10;24.80;99.90
53498;DHT22;39382;47.168;16.008;2023-07-30T12:57:36;25.00;99.90
53498;DHT22;39382;47.168;16.008;2023-07-30T13:00:02;25.00;99.90
53498;DHT22;39382;47.168;16.008;2023-07-30T13:02:30;25.00;99.90
53498;DHT22;39382;47.168;16.008;2023-07-30T13:04:59;25.00;99.90
53498;DHT22;39382;47.168;16.008;2023-07-30T13:07:24;25.00;99.90
53498;DHT22;39382;47.168;16.008;2023-07-30T13:10:08;25.10;99.90
53498;DHT22;39382;47.168;16.008;2023-07-30T13:12:34;25.20;99.90
53498;DHT22;39382;47.168;16.008;2023-07-30T13:15:01;25.30;99.90
53498;DHT22;39382;47.168;16.008;2023-07-30T13:17:27;25.40;99.90
53498;DHT22;39382;47.168;16.008;2023-07-30T13:19:52;25.70;99.90
53498;DHT22;39382;47.168;16.008;2023-07-30T13:22:18;25.80;99.90
53498;DHT22;39382;47.168;16.008;2023-07-30T13:24:44;25.90;99.90
53498;DHT22;39382;47.168;16.008;2023-07-30T13:27:10;26.00;99.90
53498;DHT22;39382;47.168;16.008;2023-07-30T13:29:36;26.10;99.90
53498;DHT22;39382;47.168;16.008;2023-07-30T13:32:02;26.30;99.90
53498;DHT22;39382;47.168;16.008;2023-07-30T13:34:27;26.50;99.90
53498;DHT22;39382;47.168;16.008;2023-07-30T13:36:53;26.70;99.90
53498;DHT22;39382;47.168;16.008;2023-07-30T13:39:19;26.70;97.60
53498;DHT22;39382;47.168;16.008;2023-07-30T13:41:45;26.90;98.20
53498;DHT22;39382;47.168;16.008;2023-07-30T13:44:10;27.10;95.60
53498;DHT22;39382;47.168;16.008;2023-07-30T13:46:37;27.10;95.10
53498;DHT22;39382;47.168;16.008;2023-07-30T13:49:03;27.20;94.40
53498;DHT22;39382;47.168;16.008;2023-07-30T13:51:29;27.30;95.20
53498;DHT22;39382;47.168;16.008;2023-07-30T13:53:58;27.30;94.50
53498;DHT22;39382;47.168;16.008;2023-07-30T13:56:25;27.60;93.10
53498;DHT22;39382;47.168;16.008;2023-07-30T13:58:51;27.70;92.40
53498;DHT22;39382;47.168;16.008;2023-07-30T14:01:16;27.60;91.70
53498;DHT22;39382;47.168;16.008;2023-07-30T14:03:43;27.60;90.00
53498;DHT22;39382;47.168;16.008;2023-07-30T14:06:09;27.60;86.80
53498;DHT22;39382;47.168;16.008;2023-07-30T14:08:35;27.50;90.80
53498;DHT22;39382;47.168;16.008;2023-07-30T14:11:00;27.40;90.30
53498;DHT22;39382;47.168;16.008;2023-07-30T14:13:26;27.30;90.10
53498;DHT22;39382;47.168;16.008;2023-07-30T14:15:52;27.20;91.10
53498;DHT22;39382;47.168;16.008;2023-07-30T14:18:18;27.00;92.00
53498;DHT22;39382;47.168;16.008;2023-07-30T14:20:43;27.10;95.50
53498;DHT22;39382;47.168;16.008;2023-07-30T14:23:09;26.90;96.30
53498;DHT22;39382;47.168;16.008;2023-07-30T14:25:36;26.60;96.10
53498;DHT22;39382;47.168;16.008;2023-07-30T14:28:01;26.50;98.10
53498;DHT22;39382;47.168;16.008;2023-07-30T14:30:27;26.30;99.90
53498;DHT22;39382;47.168;16.008;2023-07-30T14:32:53;25.90;99.90
53498;DHT22;39382;47.168;16.008;2023-07-30T14:35:18;25.70;99.90
53498;DHT22;39382;47.168;16.008;2023-07-30T14:37:44;25.30;99.90
53498;DHT22;39382;47.168;16.008;2023-07-30T14:40:10;24.90;99.90
53498;DHT22;39382;47.168;16.008;2023-07-30T14:42:35;24.90;99.90
53498;DHT22;39382;47.168;16.008;2023-07-30T14:45:01;24.80;99.90
53498;DHT22;39382;47.168;16.008;2023-07-30T14:47:26;24.90;99.90
53498;DHT22;39382;47.168;16.008;2023-07-30T14:49:52;24.60;99.90
53498;DHT22;39382;47.168;16.008;2023-07-30T14:52:18;24.40;99.90
53498;DHT22;39382;47.168;16.008;2023-07-30T14:54:44;24.30;99.90
53498;DHT22;39382;47.168;16.008;2023-07-30T14:57:10;24.30;99.90
53498;DHT22;39382;47.168;16.008;2023-07-30T14:59:36;24.50;99.90
53498;DHT22;39382;47.168;16.008;2023-07-30T15:02:01;24.50;99.90
53498;DHT22;39382;47.168;16.008;2023-07-30T15:04:27;24.60;99.90
53498;DHT22;39382;47.168;16.008;2023-07-30T15:06:52;24.60;99.90
53498;DHT22;39382;47.168;16.008;2023-07-30T15:09:18;24.60;99.90
53498;DHT22;39382;47.168;16.008;2023-07-30T15:11:43;24.40;99.90
53498;DHT22;39382;47.168;16.008;2023-07-30T15:14:09;24.30;99.90
53498;DHT22;39382;47.168;16.008;2023-07-30T15:16:34;24.00;99.90